Laurel, MT

10:55 PM MST on December 05, 2016 (GMT -0700)
NonFedAWOS | | Change Station

Elev 3517 ft 45.70 °N, 108.76 °W | Updated 40 minutes ago

Light Snow
Light Snow
16.0 °F
Feels Like 16.0 °F
N
0.0
Wind Variable Wind from North
Gusts 0.0 mph

Today
High -- | Low -- °F
--% Chance of Precip.
Yesterday
High -- | Low -- °F
Precip. -- in
Pressure 30.17 in
Visibility 10.0 miles
Clouds Few 4000 ft
Mostly Cloudy 6500 ft
Overcast 9500 ft
Dew Point 3.0 °F
Humidity 56%
Rainfall in
Snow Depth Not available.
7:40 AM 4:31 PM
Waxing Crescent, 38% visible
METAR KBIL 060553Z 34003KT 10SM -SN FEW040 BKN065 OVC095 M09/M15 A3001 RMK AO2 SNB53 SLP214 P0000 60000 T10891150 11067 21100 51004
Pressure 30.17 in
Visibility 10.0 miles
Clouds Few 4000 ft
Mostly Cloudy 6500 ft
Overcast 9500 ft
Dew Point 3.0 °F
Humidity 56%
Rainfall in
Snow Depth Not available.
7:40 AM 4:31 PM
Waxing Crescent, 38% visible
METAR KBIL 060553Z 34003KT 10SM -SN FEW040 BKN065 OVC095 M09/M15 A3001 RMK AO2 SNB53 SLP214 P0000 60000 T10891150 11067 21100 51004

10-Day Weather Forecast

Almanac

Astronomy

Dec. 05, 2016 Rise Set
Actual Time
Civil Twilight
Nautical Twilight
Astronomical Twilight
Moon
Length of Visible Light
Length of Day
Tomorrow will be .
, % of the Moon is Illuminated

Today's Extremes

State Highs State Lows

Community

WunderPhotos

Upload Photos

1,955,931 photos uploaded!

WunderBlog® & News

Nearby

Air Quality

  Air Quality AQ Index Pollutant
Not available.

Snow Depth

Station Depth Elevation

Earthquake Activity

City Distance Mag. Time & Date
Minimum magnitude displayed is 2.5.

Coastal Water Temperatures

Place Temperature

Stations

Nearby Weather Stations

Station Location Temp. Windchill Dew Point Humidity Wind Precip. Elev Updated Type
                   

Watches & Warnings

There are currently no watches in effect.